createdAt,value
2023-05-13T00:00:59.993Z,98.21
2023-05-13T00:04:02.875Z,97.62
2023-05-13T00:07:05.592Z,97.44
2023-05-13T00:10:09.192Z,98.18
2023-05-13T00:13:11.737Z,97.79
2023-05-13T00:16:14.657Z,97.90
2023-05-13T00:19:17.656Z,97.94
2023-05-13T00:22:20.567Z,98.10
2023-05-13T00:25:23.126Z,98.23
2023-05-13T00:28:25.998Z,97.79
2023-05-13T00:31:28.690Z,97.38
2023-05-13T00:34:31.646Z,98.21
2023-05-13T00:37:34.229Z,97.95
2023-05-13T00:40:39.610Z,97.75
2023-05-13T00:43:42.179Z,97.68
2023-05-13T00:46:45.098Z,97.93
2023-05-13T00:49:48.007Z,98.32
2023-05-13T00:52:51.357Z,98.55
2023-05-13T00:55:53.917Z,98.00
2023-05-13T00:58:56.803Z,97.75
2023-05-13T01:02:21.508Z,98.01
2023-05-13T01:05:27.267Z,97.98
2023-05-13T01:08:36.713Z,97.99
2023-05-13T01:11:41.669Z,97.69
2023-05-13T01:14:51.633Z,97.51
2023-05-13T01:18:06.750Z,97.27
2023-05-13T01:21:09.886Z,96.94
2023-05-13T01:24:12.750Z,98.48
2023-05-13T01:27:15.827Z,97.34
2023-05-13T01:30:19.532Z,97.46
2023-05-13T01:33:23.576Z,97.04
2023-05-13T01:36:26.650Z,96.75
2023-05-13T01:39:30.791Z,96.85
2023-05-13T01:42:36.792Z,96.87
2023-05-13T01:45:39.317Z,97.02
2023-05-13T01:48:42.114Z,97.57
2023-05-13T01:51:44.766Z,97.11
2023-05-13T01:54:50.424Z,97.44
2023-05-13T01:57:53.454Z,97.20
2023-05-13T02:00:56.303Z,97.42
2023-05-13T02:04:01.913Z,97.49
2023-05-13T02:07:04.670Z,97.63
2023-05-13T02:10:08.139Z,97.21
2023-05-13T02:13:10.623Z,97.40
2023-05-13T02:16:16.016Z,97.75
2023-05-13T02:19:19.716Z,97.69
2023-05-13T02:22:24.205Z,97.58
2023-05-13T02:25:26.691Z,97.73
2023-05-13T02:28:29.693Z,97.77
2023-05-13T02:31:32.238Z,97.21
2023-05-13T02:34:35.036Z,97.25
2023-05-13T02:37:37.640Z,97.17
2023-05-13T02:40:40.716Z,97.25
2023-05-13T02:43:43.167Z,97.23
2023-05-13T02:46:46.084Z,97.15
2023-05-13T02:49:48.720Z,97.42
2023-05-13T02:52:51.895Z,97.48
2023-05-13T02:55:54.711Z,97.01
2023-05-13T02:58:59.697Z,96.95
2023-05-13T03:02:02.248Z,96.67
2023-05-13T03:05:05.459Z,97.00
2023-05-13T03:08:08.224Z,97.13
2023-05-13T03:11:11.034Z,97.36
2023-05-13T03:14:14.867Z,97.25
2023-05-13T03:17:17.714Z,97.02
2023-05-13T03:20:20.750Z,96.97
2023-05-13T03:23:23.928Z,97.35
2023-05-13T03:26:27.501Z,97.36
2023-05-13T03:29:31.296Z,97.65
2023-05-13T03:32:35.046Z,97.61
2023-05-13T03:35:38.724Z,97.81
2023-05-13T03:38:41.676Z,97.83
2023-05-13T03:41:45.761Z,98.17
2023-05-13T03:44:48.749Z,98.14
2023-05-13T03:47:51.978Z,98.39
2023-05-13T03:50:55.648Z,98.76
2023-05-13T03:53:58.732Z,98.83
2023-05-13T03:57:01.633Z,98.85
2023-05-13T04:00:04.910Z,98.66
2023-05-13T04:03:17.768Z,98.40
2023-05-13T04:06:21.795Z,98.96
2023-05-13T04:09:24.399Z,99.24
2023-05-13T04:12:27.224Z,98.95
2023-05-13T04:15:31.743Z,99.54
2023-05-13T04:18:34.787Z,99.55
2023-05-13T04:21:37.459Z,100.00
2023-05-13T04:24:40.359Z,99.82
2023-05-13T04:27:43.727Z,99.86
2023-05-13T04:30:47.448Z,99.75
2023-05-13T04:33:50.129Z,100.00
2023-05-13T04:36:53.733Z,100.00
2023-05-13T04:39:56.298Z,100.00
2023-05-13T04:42:59.374Z,100.00
2023-05-13T04:46:02.650Z,100.00
2023-05-13T04:49:05.723Z,100.00
2023-05-13T04:52:08.846Z,99.43
2023-05-13T04:55:11.930Z,100.00
2023-05-13T04:58:14.698Z,100.00
2023-05-13T05:01:17.555Z,100.00
2023-05-13T05:04:20.382Z,100.00
2023-05-13T05:07:24.400Z,100.00
2023-05-13T05:10:27.635Z,100.00
2023-05-13T05:13:31.653Z,100.00
2023-05-13T05:16:35.131Z,100.00
2023-05-13T05:19:38.599Z,100.00
2023-05-13T05:22:42.311Z,100.00
2023-05-13T05:25:45.491Z,99.28
2023-05-13T05:28:48.081Z,99.18
2023-05-13T05:31:52.114Z,99.78
2023-05-13T05:34:55.084Z,99.26
2023-05-13T05:37:57.979Z,98.41
2023-05-13T05:41:00.803Z,97.35
2023-05-13T05:44:04.344Z,96.68
2023-05-13T05:47:07.598Z,97.33
2023-05-13T05:50:10.903Z,97.75
2023-05-13T05:53:13.547Z,97.36
2023-05-13T05:56:16.636Z,97.49
2023-05-13T05:59:20.000Z,97.78
2023-05-13T06:02:22.953Z,98.33
2023-05-13T06:05:27.128Z,98.63
2023-05-13T06:08:30.964Z,97.40
2023-05-13T06:11:33.766Z,97.05
2023-05-13T06:14:36.400Z,98.39
2023-05-13T06:17:39.546Z,98.02
2023-05-13T06:20:42.271Z,98.07
2023-05-13T06:23:45.230Z,98.56
2023-05-13T06:26:48.779Z,99.08
2023-05-13T06:29:51.763Z,98.83
2023-05-13T06:33:01.551Z,98.72
2023-05-13T06:36:05.822Z,98.20
2023-05-13T06:39:08.449Z,98.12
2023-05-13T06:42:14.166Z,98.38
2023-05-13T06:45:23.109Z,98.98
2023-05-13T06:48:26.274Z,99.25
2023-05-13T06:51:28.814Z,98.79
2023-05-13T06:54:32.139Z,99.34
2023-05-13T06:57:42.451Z,100.00
2023-05-13T07:00:46.969Z,100.00
2023-05-13T07:03:49.556Z,100.00
2023-05-13T07:06:52.482Z,99.84
2023-05-13T07:09:54.974Z,99.02
2023-05-13T07:12:57.755Z,98.73
2023-05-13T07:16:01.112Z,98.24
2023-05-13T07:19:03.996Z,98.77
2023-05-13T07:22:06.571Z,98.27
2023-05-13T07:25:09.800Z,97.74
2023-05-13T07:28:12.303Z,96.55
2023-05-13T07:31:15.326Z,96.71
2023-05-13T07:34:17.928Z,96.59
2023-05-13T07:37:20.828Z,97.45
2023-05-13T07:40:23.582Z,97.19
2023-05-13T07:43:27.970Z,97.93
2023-05-13T07:46:30.611Z,96.85
2023-05-13T07:49:33.497Z,96.81
2023-05-13T07:52:36.426Z,97.37
2023-05-13T07:55:39.231Z,97.36
2023-05-13T07:58:41.765Z,96.78
2023-05-13T08:01:44.604Z,97.44
2023-05-13T08:04:47.876Z,97.04
2023-05-13T08:07:50.500Z,96.51
2023-05-13T08:10:53.395Z,96.83
2023-05-13T08:13:56.066Z,96.47
2023-05-13T08:16:58.888Z,96.19
2023-05-13T08:20:02.261Z,96.48
2023-05-13T08:23:05.147Z,96.26
2023-05-13T08:26:07.653Z,96.42
2023-05-13T08:29:13.126Z,96.26
2023-05-13T08:32:15.714Z,94.94
2023-05-13T08:35:18.631Z,95.59
2023-05-13T08:38:21.230Z,95.91
2023-05-13T08:41:24.060Z,94.60
2023-05-13T08:44:29.327Z,94.45
2023-05-13T08:47:52.477Z,94.16
2023-05-13T08:50:55.190Z,93.96
2023-05-13T08:53:59.104Z,93.98
2023-05-13T08:57:01.652Z,93.03
2023-05-13T09:00:05.263Z,93.04
2023-05-13T09:03:08.456Z,94.20
2023-05-13T09:06:11.437Z,95.34
2023-05-13T09:09:14.079Z,95.07
2023-05-13T09:12:42.586Z,95.05
2023-05-13T09:15:45.491Z,95.11
2023-05-13T09:18:48.727Z,94.56
2023-05-13T09:21:52.847Z,94.72
2023-05-13T09:24:55.766Z,95.13
2023-05-13T09:28:00.045Z,95.04
2023-05-13T09:31:02.854Z,93.78
2023-05-13T09:34:05.543Z,94.39
2023-05-13T09:37:08.874Z,94.28
2023-05-13T09:40:12.943Z,93.46
2023-05-13T09:43:15.857Z,92.30
2023-05-13T09:46:18.544Z,92.16
2023-05-13T09:49:26.581Z,93.10
2023-05-13T09:52:31.153Z,91.89
2023-05-13T09:55:33.968Z,90.24
2023-05-13T09:58:36.482Z,90.18
2023-05-13T10:01:39.433Z,89.52
2023-05-13T10:04:43.226Z,89.65
2023-05-13T10:07:46.339Z,89.00
2023-05-13T10:10:50.615Z,88.12
2023-05-13T10:13:58.843Z,87.92
2023-05-13T10:17:02.534Z,88.30
2023-05-13T10:20:05.595Z,86.63
2023-05-13T10:23:09.250Z,87.85
2023-05-13T10:26:11.882Z,85.31
2023-05-13T10:29:15.042Z,85.64
2023-05-13T10:32:17.718Z,85.37
2023-05-13T10:35:23.479Z,86.45
2023-05-13T10:38:42.517Z,85.27
2023-05-13T10:42:07.864Z,83.87
2023-05-13T10:45:10.934Z,83.45
2023-05-13T10:48:15.129Z,83.55
2023-05-13T10:51:23.299Z,82.43
2023-05-13T10:54:26.081Z,82.54
2023-05-13T10:57:37.863Z,81.91
2023-05-13T11:00:42.672Z,80.17
2023-05-13T11:04:00.249Z,81.12
2023-05-13T11:07:14.709Z,79.30
2023-05-13T11:10:29.023Z,80.79
2023-05-13T11:13:38.352Z,79.75
2023-05-13T11:16:46.516Z,78.64
2023-05-13T11:19:51.570Z,78.84
2023-05-13T11:22:54.074Z,77.07
2023-05-13T11:26:14.860Z,78.44
2023-05-13T11:29:38.791Z,78.88
2023-05-13T11:32:51.047Z,78.34
2023-05-13T11:35:57.878Z,77.96
2023-05-13T11:39:15.098Z,77.49
2023-05-13T11:42:17.775Z,76.37
2023-05-13T11:45:22.898Z,77.94
2023-05-13T11:48:26.382Z,77.96
2023-05-13T11:51:31.902Z,78.65
2023-05-13T11:55:00.905Z,78.55
2023-05-13T11:58:03.964Z,77.84
2023-05-13T12:01:06.492Z,78.28
2023-05-13T12:04:09.384Z,77.46
2023-05-13T12:07:12.344Z,76.72
2023-05-13T12:10:15.307Z,76.11
2023-05-13T12:13:18.977Z,76.39
2023-05-13T12:16:21.892Z,77.54
2023-05-13T12:19:24.447Z,77.31
2023-05-13T12:22:27.304Z,77.30
2023-05-13T12:25:45.810Z,76.87
2023-05-13T12:28:48.672Z,74.75
2023-05-13T12:32:05.418Z,75.65
2023-05-13T12:35:14.335Z,75.32
2023-05-13T12:38:18.683Z,75.87
2023-05-13T12:41:22.949Z,75.36
2023-05-13T12:44:26.740Z,75.47
2023-05-13T12:47:29.613Z,75.87
2023-05-13T12:50:32.193Z,75.30
2023-05-13T12:53:35.060Z,73.94
2023-05-13T12:56:40.036Z,75.01
2023-05-13T12:59:45.275Z,75.11
2023-05-13T13:02:47.793Z,74.91
2023-05-13T13:05:51.691Z,75.27
2023-05-13T13:08:54.257Z,76.67
2023-05-13T13:11:57.290Z,75.25
2023-05-13T13:14:59.828Z,74.08
2023-05-13T13:18:02.570Z,74.46
2023-05-13T13:21:07.106Z,73.66
2023-05-13T13:24:09.890Z,72.70
2023-05-13T13:27:12.436Z,72.16
2023-05-13T13:30:15.569Z,72.40
2023-05-13T13:33:18.874Z,73.42
2023-05-13T13:36:21.822Z,72.88
2023-05-13T13:39:24.370Z,72.62
2023-05-13T13:42:40.138Z,72.70
2023-05-13T13:45:45.753Z,72.43
2023-05-13T13:48:48.542Z,72.51
2023-05-13T13:51:52.755Z,72.18
2023-05-13T13:54:55.654Z,71.58
2023-05-13T13:57:58.121Z,71.02
2023-05-13T14:01:01.055Z,71.52
2023-05-13T14:04:15.203Z,71.44
2023-05-13T14:07:17.854Z,71.58
2023-05-13T14:10:21.037Z,72.13
2023-05-13T14:13:23.718Z,71.23
2023-05-13T14:16:26.650Z,70.63
2023-05-13T14:19:29.201Z,71.04
2023-05-13T14:22:32.186Z,70.29
2023-05-13T14:25:35.436Z,70.79
2023-05-13T14:28:38.268Z,71.17
2023-05-13T14:31:40.849Z,71.06
2023-05-13T14:34:43.705Z,70.91
2023-05-13T14:37:46.308Z,71.32
2023-05-13T14:40:49.186Z,71.67
2023-05-13T14:43:51.703Z,71.25
2023-05-13T14:46:54.822Z,71.09
2023-05-13T14:49:57.366Z,70.53
2023-05-13T14:53:00.206Z,71.61
2023-05-13T14:56:02.915Z,71.20
2023-05-13T14:59:05.701Z,71.21
2023-05-13T15:02:08.264Z,71.53
2023-05-13T15:05:11.444Z,71.60
2023-05-13T15:08:14.170Z,71.22
2023-05-13T15:11:16.935Z,70.66
2023-05-13T15:14:21.012Z,71.19
2023-05-13T15:17:24.166Z,71.06
2023-05-13T15:20:28.320Z,72.04
2023-05-13T15:23:31.186Z,71.81
2023-05-13T15:26:33.740Z,72.13
2023-05-13T15:29:36.593Z,72.17
2023-05-13T15:32:39.189Z,72.61
2023-05-13T15:35:42.784Z,72.19
2023-05-13T15:38:45.317Z,72.11
2023-05-13T15:41:48.312Z,73.24
2023-05-13T15:44:50.845Z,72.86
2023-05-13T15:47:53.712Z,72.18
2023-05-13T15:50:56.296Z,72.21
2023-05-13T15:54:00.292Z,70.82
2023-05-13T15:57:02.763Z,71.15
2023-05-13T16:00:06.354Z,72.05
2023-05-13T16:03:08.758Z,72.13
2023-05-13T16:06:11.557Z,72.07
2023-05-13T16:09:14.099Z,70.72
2023-05-13T16:12:16.891Z,71.27
2023-05-13T16:15:20.409Z,71.64
2023-05-13T16:18:23.942Z,72.18
2023-05-13T16:21:26.407Z,71.66
2023-05-13T16:24:29.110Z,72.07
2023-05-13T16:27:32.879Z,72.72
2023-05-13T16:30:35.835Z,73.10
2023-05-13T16:33:38.423Z,73.35
2023-05-13T16:36:41.235Z,73.03
2023-05-13T16:39:43.915Z,73.15
2023-05-13T16:42:46.806Z,73.68
2023-05-13T16:45:49.280Z,73.81
2023-05-13T16:48:52.156Z,73.99
2023-05-13T16:51:54.794Z,73.69
2023-05-13T16:54:58.955Z,74.28
2023-05-13T16:58:01.654Z,74.26
2023-05-13T17:01:04.614Z,73.79
2023-05-13T17:04:07.104Z,73.74
2023-05-13T17:07:10.055Z,73.77
2023-05-13T17:10:12.626Z,73.95
2023-05-13T17:13:15.512Z,73.50
2023-05-13T17:16:18.077Z,74.31
2023-05-13T17:19:20.984Z,74.86
2023-05-13T17:22:23.528Z,74.64
2023-05-13T17:25:26.517Z,74.25
2023-05-13T17:28:29.263Z,74.44
2023-05-13T17:31:32.392Z,74.85
2023-05-13T17:34:36.177Z,74.95
2023-05-13T17:37:39.134Z,75.29
2023-05-13T17:40:41.711Z,75.85
2023-05-13T17:43:44.653Z,75.84
2023-05-13T17:46:47.260Z,76.42
2023-05-13T17:49:50.239Z,76.09
2023-05-13T17:52:52.828Z,76.06
2023-05-13T17:55:56.201Z,76.54
2023-05-13T17:58:58.779Z,76.89
2023-05-13T18:02:01.694Z,76.93
2023-05-13T18:05:04.796Z,76.70
2023-05-13T18:08:07.577Z,76.83
2023-05-13T18:11:10.364Z,76.63
2023-05-13T18:14:13.056Z,77.21
2023-05-13T18:17:16.100Z,77.31
2023-05-13T18:20:18.594Z,77.06
2023-05-13T18:23:21.611Z,77.32
2023-05-13T18:26:24.187Z,77.46
2023-05-13T18:29:27.072Z,77.92
2023-05-13T18:32:29.626Z,77.85
2023-05-13T18:35:32.508Z,78.74
2023-05-13T18:38:35.022Z,77.94
2023-05-13T18:41:37.922Z,78.42
2023-05-13T18:44:40.881Z,78.36
2023-05-13T18:47:43.673Z,78.58
2023-05-13T18:50:46.245Z,78.24
2023-05-13T18:53:49.416Z,78.28
2023-05-13T18:56:52.045Z,78.03
2023-05-13T18:59:54.960Z,78.63
2023-05-13T19:02:57.671Z,78.41
2023-05-13T19:06:00.710Z,78.39
2023-05-13T19:09:03.374Z,78.63
2023-05-13T19:12:07.574Z,78.48
2023-05-13T19:15:11.433Z,79.17
2023-05-13T19:18:14.346Z,78.94
2023-05-13T19:21:16.923Z,78.45
2023-05-13T19:24:19.773Z,79.12
2023-05-13T19:27:22.397Z,79.41
2023-05-13T19:30:25.273Z,79.80
2023-05-13T19:33:27.926Z,79.92
2023-05-13T19:36:31.101Z,79.83
2023-05-13T19:39:33.604Z,79.59
2023-05-13T19:42:36.690Z,79.79
2023-05-13T19:45:39.346Z,80.00
2023-05-13T19:48:42.407Z,79.94
2023-05-13T19:51:44.942Z,79.69
2023-05-13T19:54:47.941Z,80.27
2023-05-13T19:57:50.590Z,80.06
2023-05-13T20:00:54.292Z,79.95
2023-05-13T20:03:57.292Z,80.05
2023-05-13T20:06:59.918Z,80.21
2023-05-13T20:10:02.760Z,80.25
2023-05-13T20:13:05.292Z,79.91
2023-05-13T20:16:08.156Z,79.97
2023-05-13T20:19:11.027Z,79.76
2023-05-13T20:22:14.989Z,79.89
2023-05-13T20:25:17.430Z,80.17
2023-05-13T20:28:21.157Z,80.18
2023-05-13T20:31:23.734Z,80.21
2023-05-13T20:34:26.845Z,80.26
2023-05-13T20:37:29.541Z,80.30
2023-05-13T20:40:32.468Z,80.48
2023-05-13T20:43:36.025Z,80.70
2023-05-13T20:46:38.754Z,80.74
2023-05-13T20:49:43.853Z,80.80
2023-05-13T20:52:46.830Z,80.95
2023-05-13T20:55:49.322Z,81.37
2023-05-13T20:58:52.627Z,81.56
2023-05-13T21:01:55.333Z,81.76
2023-05-13T21:04:58.235Z,81.86
2023-05-13T21:08:01.203Z,82.16
2023-05-13T21:11:04.286Z,82.10
2023-05-13T21:14:06.830Z,82.42
2023-05-13T21:17:09.587Z,82.49
2023-05-13T21:20:12.630Z,82.54
2023-05-13T21:23:15.400Z,82.73
2023-05-13T21:26:17.980Z,82.98
2023-05-13T21:29:20.825Z,83.30
2023-05-13T21:32:23.445Z,83.92
2023-05-13T21:35:26.262Z,83.73
2023-05-13T21:38:28.887Z,83.52
2023-05-13T21:41:31.629Z,83.31
2023-05-13T21:44:34.129Z,83.45
2023-05-13T21:47:36.921Z,84.00
2023-05-13T21:50:39.763Z,83.88
2023-05-13T21:53:43.121Z,83.99
2023-05-13T21:56:46.422Z,84.75
2023-05-13T21:59:49.257Z,84.51
2023-05-13T22:02:51.955Z,84.38
2023-05-13T22:05:54.914Z,84.23
2023-05-13T22:08:57.457Z,84.45
2023-05-13T22:12:00.584Z,84.47
2023-05-13T22:15:03.229Z,84.15
2023-05-13T22:18:06.863Z,84.12
2023-05-13T22:21:09.499Z,83.83
2023-05-13T22:24:12.391Z,83.58
2023-05-13T22:27:14.924Z,83.70
2023-05-13T22:30:18.046Z,83.74
2023-05-13T22:33:20.570Z,83.75
2023-05-13T22:36:26.255Z,83.49
2023-05-13T22:39:28.717Z,83.40
2023-05-13T22:42:31.472Z,83.60
2023-05-13T22:45:33.958Z,83.92
2023-05-13T22:48:36.756Z,83.80
2023-05-13T22:51:39.237Z,83.58
2023-05-13T22:54:42.023Z,83.55
2023-05-13T22:57:44.485Z,83.54
2023-05-13T23:00:48.088Z,83.73
2023-05-13T23:03:50.663Z,83.66
2023-05-13T23:06:53.536Z,83.51
2023-05-13T23:09:56.290Z,83.86
2023-05-13T23:12:59.650Z,83.87
2023-05-13T23:16:02.221Z,83.83
2023-05-13T23:19:05.133Z,83.50
2023-05-13T23:22:07.685Z,83.29
2023-05-13T23:25:10.685Z,83.46
2023-05-13T23:28:13.727Z,83.61
2023-05-13T23:31:16.735Z,83.10
2023-05-13T23:34:19.449Z,83.12
2023-05-13T23:37:22.469Z,83.20
2023-05-13T23:40:25.110Z,83.23
2023-05-13T23:46:35.785Z,82.70
2023-05-13T23:49:38.526Z,82.90
2023-05-13T23:52:41.178Z,82.62
2023-05-13T23:55:44.013Z,82.43
2023-05-13T23:58:46.497Z,81.99
